x

9418767 - North Spit, Ca (hbyc1) Weather Station

6:36pm - Mon 23rd Apr 2018 All times are PDT. -7 hours from GMT.

  • Wind
    3mph, 3mph gusts
  • Sea Temp 52°f
  • Air Temp 58°f
  • Sea Pressure 1014.9mb
  • 9418767 - North Spit, Ca
  • 9418767 - North Spit, Ca

More Historic Weather Station data

Upgrade to MSW Pro to gain access to the past 30 days of data for over 8000 Wavebouys and Weather Stations around the globe.

Join

Comparision Forecast

View Surf forecast
   
Mon 04/23 6:36pm 3 3 mph 1014.9mb 52f 58f
6:30pm 2 2 mph 1014.9mb 52f 58f
6:24pm  -  1 mph 1014.9mb 52f 59f
6:18pm 1 2 mph 1014.9mb 52f 58f
6:12pm 2 2 mph 1015mb 52f 59f
6:06pm 2 3 mph 1015mb 52f 59f
6:00pm 3 5 mph 1015.1mb 52f 58f
5:36pm 3 5 mph 1015.3mb 53f 58f
5:30pm 5 5 mph 1015.4mb 53f 57f
5:24pm 5 5 mph 1015.3mb 53f 57f
5:18pm 5 5 mph 1015.3mb 53f 58f
5:12pm 5 6 mph 1015.3mb 53f 58f
5:06pm 6 6 mph 1015.2mb 54f 58f
5:00pm 5 5 mph 1015.3mb 54f 57f
4:36pm 3 5 mph 1015.5mb 54f 56f
4:30pm 5 6 mph 1015.6mb 54f 55f
4:24pm 6 7 mph 1015.6mb 54f 55f
4:18pm 7 7 mph 1015.5mb 54f 55f
4:12pm 7 7 mph 1015.6mb 54f 55f
4:06pm 7 8 mph 1015.7mb 54f 56f
4:00pm 7 7 mph 1015.8mb 54f 56f
3:36pm 5 6 mph 1015.9mb 54f 57f
3:30pm 6 7 mph 1016mb 55f 57f
3:24pm 6 7 mph 1016.1mb 55f 56f
3:18pm 7 9 mph 1016.1mb 55f 56f
3:12pm 7 8 mph 1016.1mb 55f 56f
3:06pm 6 7 mph 1016.1mb 55f 56f
3:00pm 6 7 mph 1016.1mb 55f 55f
2:36pm 3 5 mph 1016.2mb 56f 58f
2:30pm 5 6 mph 1016.3mb 56f 57f
2:24pm 6 6 mph 1016.3mb 56f 58f
2:18pm 6 6 mph 1016.4mb 56f 57f
2:12pm 5 6 mph 1016.4mb 56f 57f
2:06pm 5 6 mph 1016.5mb 56f 57f
2:00pm 3 3 mph 1016.5mb 56f 56f
1:36pm 2 3 mph 1016.3mb 56f 59f
1:30pm  -  1 mph 1016.3mb 56f 61f
1:24pm  -  2 mph 1016.3mb 56f 59f
1:18pm 2 2 mph 1016.4mb 55f 57f
1:12pm 3 3 mph 1016.4mb 55f 57f
1:06pm 2 3 mph 1016.4mb 55f 59f
1:00pm 2 3 mph 1016.4mb 55f 59f
12:36pm  -  1 mph 1016.3mb 53f 56f
12:30pm  -  2 mph 1016.3mb 53f 55f
12:24pm  -  2 mph 1016.4mb 53f 55f
12:18pm 2 2 mph 1016.4mb 53f 54f
12:12pm 2 2 mph 1016.4mb 53f 54f
12:06pm 3 3 mph 1016.4mb 53f 53f
12:00pm 3 3 mph 1016.5mb 52f 53f
11:36am 2 2 mph 1016.5mb 51f 53f
11:30am 2 2 mph 1016.5mb 51f 53f
11:24am  -  1 mph 1016.5mb 51f 55f
11:18am  -  0 mph 1016.5mb 51f 55f
11:12am  -  1 mph 1016.5mb 51f 53f
11:06am 1 1 mph 1016.4mb 51f 52f
11:00am 1 2 mph 1016.4mb 51f 52f
10:36am 3 5 mph 1016.2mb 51f 51f
10:30am 3 5 mph 1016.2mb 51f 51f
10:24am 3 5 mph 1016.1mb 51f 51f
10:18am 3 5 mph 1016mb 51f 51f
10:12am 3 5 mph 1015.9mb 51f 51f
10:06am 5 5 mph 1015.8mb 51f 50f
10:00am 5 6 mph 1015.7mb 51f 50f
9:36am 6 7 mph 1015.8mb 51f 51f
9:30am 5 5 mph 1015.8mb 51f 51f
9:24am 5 6 mph 1015.7mb 51f 51f
9:18am 2 3 mph 1015.6mb 51f 50f
9:12am 5 6 mph 1015.5mb 51f 50f
9:06am 5 5 mph 1015.4mb 51f 50f
9:00am 5 6 mph 1015.4mb 51f 51f
8:36am 5 6 mph 1015.6mb 50f 50f
8:30am 5 5 mph 1015.6mb 50f 49f
8:24am 3 5 mph 1015.7mb 50f 49f
8:18am 3 5 mph 1015.7mb 50f 49f
8:12am 3 5 mph 1015.8mb 50f 48f
8:06am 5 5 mph 1015.8mb 50f 48f
8:00am 5 5 mph 1015.9mb 50f 47f
7:36am 6 6 mph 1015.9mb 50f 46f
7:30am 5 6 mph 1015.9mb 50f 46f
7:24am 6 7 mph 1015.9mb 50f 45f
7:18am 6 7 mph 1015.9mb 50f 45f
7:12am 7 8 mph 1015.9mb 49f 45f
7:06am 7 8 mph 1015.9mb 49f 44f
7:00am 6 7 mph 1015.9mb 49f 45f
6:36am 6 7 mph 1015.9mb 49f 45f
6:30am 5 6 mph 1015.9mb 49f 45f
6:24am 6 7 mph 1015.8mb 49f 45f
6:18am 5 6 mph 1015.8mb 49f 46f
6:12am 3 5 mph 1015.8mb 49f 46f
6:06am 5 5 mph 1015.7mb 49f 46f
6:00am 5 6 mph 1015.6mb 50f 47f
5:36am 6 7 mph 1015.6mb 50f 45f
5:30am 6 7 mph 1015.6mb 50f 45f
5:24am 5 6 mph 1015.6mb 51f 45f
5:18am 5 6 mph 1015.5mb 51f 45f
5:12am 5 6 mph 1015.5mb 51f 46f
5:06am 5 6 mph 1015.4mb 51f 46f
5:00am 3 3 mph 1015.3mb 51f 46f
4:36am 6 7 mph 1015.3mb 51f 46f
4:30am 5 6 mph 1015.3mb 52f 46f
4:24am 5 6 mph 1015.3mb 52f 46f
4:18am 5 6 mph 1015.4mb 52f 46f
4:12am 5 6 mph 1015.4mb 52f 46f
4:06am 3 5 mph 1015.4mb 52f 46f
4:00am 3 5 mph 1015.4mb 52f 46f
3:36am 6 8 mph 1015.6mb 52f 46f
3:30am 7 8 mph 1015.7mb 52f 45f
3:24am 7 9 mph 1015.7mb 52f 45f
3:18am 7 9 mph 1015.8mb 52f 45f
3:12am 8 9 mph 1015.8mb 52f 45f
3:06am 8 9 mph 1015.9mb 52f 45f
3:00am 8 10 mph 1015.9mb 52f 45f
2:36am 6 7 mph 1016.2mb 53f 46f
2:30am 5 5 mph 1016.3mb 53f 47f
2:24am 2 3 mph 1016.3mb 53f 47f
2:18am 2 2 mph 1016.4mb 53f 47f
2:12am 2 2 mph 1016.4mb 53f 47f
2:06am 2 5 mph 1016.4mb 53f 47f
2:00am 3 5 mph 1016.4mb 53f 47f
1:36am 5 8 mph 1016.5mb 53f 47f
1:30am 5 7 mph 1016.5mb 53f 47f
1:24am 5 6 mph 1016.5mb 53f 47f
1:18am 5 6 mph 1016.5mb 53f 49f
1:12am 6 6 mph 1016.6mb 53f 49f
1:06am 6 7 mph 1016.7mb 53f 49f
1:00am 5 6 mph 1016.8mb 53f 49f
12:36am 3 8 mph 1016.8mb 53f 49f
12:30am 7 9 mph 1017mb 53f 49f
12:24am 7 9 mph 1017mb 53f 49f
12:18am 8 10 mph 1017mb 53f 49f
12:12am 9 10 mph 1017mb 53f 49f
12:06am 10 11 mph 1017.1mb 53f 49f
12:00am 9 11 mph 1017.1mb 53f 49f
Sun 04/22 11:36pm 10 11 mph 1017.2mb 52f 50f
11:30pm 8 9 mph 1017.2mb 52f 50f
11:24pm 7 8 mph 1017.1mb 52f 51f
11:18pm 6 8 mph 1017.2mb 52f 51f
11:12pm 6 9 mph 1017.2mb 52f 50f
11:06pm 7 11 mph 1017.3mb 51f 50f
11:00pm 9 11 mph 1017.3mb 51f 50f
10:36pm 9 10 mph 1017.2mb 51f 51f
10:30pm 8 10 mph 1017.3mb 51f 51f
10:24pm 7 9 mph 1017.3mb 51f 51f
10:18pm 6 8 mph 1017.3mb 51f 51f
10:12pm 6 7 mph 1017.4mb 51f 51f
10:06pm 3 5 mph 1017.3mb 51f 51f
10:00pm 2 3 mph 1017.4mb 51f 51f
9:36pm 6 7 mph 1017.6mb 51f 51f
9:30pm 7 9 mph 1017.6mb 51f 51f
9:24pm 9 10 mph 1017.7mb 51f 51f
9:18pm 10 13 mph 1017.7mb 51f 51f
9:12pm 11 14 mph 1017.8mb 51f 51f
9:06pm 13 15 mph 1017.8mb 51f 51f
9:00pm 14 16 mph 1017.9mb 51f 51f
8:36pm 15 17 mph 1018.3mb 50f 51f
8:30pm 16 17 mph 1018.3mb 50f 51f
8:24pm 15 18 mph 1018.3mb 50f 51f
8:18pm 17 22 mph 1018.4mb 50f 51f
8:12pm 21 23 mph 1018.4mb 50f 51f
8:06pm 21 25 mph 1018.4mb 50f 51f
8:00pm 22 25 mph 1018.5mb 50f 51f
6:36pm 15 17 mph 1019.2mb 51f 51f
6:30pm 15 17 mph 1019.2mb 51f 51f
6:24pm 14 17 mph 1019.2mb 51f 51f
6:18pm 14 15 mph 1019.2mb 51f 51f
6:12pm 13 16 mph 1019.2mb 51f 51f
6:06pm 16 18 mph 1019.3mb 51f 51f
6:00pm 17 20 mph 1019.3mb 51f 51f
5:36pm 15 18 mph 1019.2mb 52f 51f
5:30pm 17 22 mph 1019mb 52f 51f
5:24pm 18 22 mph 1019mb 52f 51f
5:18pm 21 22 mph 1019mb 52f 51f
5:12pm 20 23 mph 1019mb 52f 51f
5:06pm 20 22 mph 1019mb 52f 51f
5:00pm 18 21 mph 1019.1mb 52f 51f
4:36pm 20 22 mph 1019.3mb 53f 51f
4:30pm 21 23 mph 1019.3mb 53f 51f
4:24pm 22 25 mph 1019.3mb 53f 51f
4:18pm 20 22 mph 1019.4mb 53f 51f
4:12pm 17 21 mph 1019.3mb 53f 51f
4:06pm 17 21 mph 1019.3mb 54f 51f
4:00pm 17 20 mph 1019.3mb 54f 51f
3:36pm 21 24 mph 1019.6mb 54f 51f
3:30pm 20 24 mph 1019.7mb 54f 52f
3:24pm 20 24 mph 1019.8mb 54f 51f
3:18pm 22 25 mph 1019.8mb 54f 52f
3:12pm 21 23 mph 1019.8mb 54f 51f
3:06pm 22 24 mph 1019.8mb 54f 52f
3:00pm 22 26 mph 1019.9mb 54f 52f
2:36pm 21 22 mph 1020.3mb 55f 52f
2:30pm 16 20 mph 1020.4mb 55f 52f
2:24pm 15 17 mph 1020.4mb 55f 52f
2:18pm 15 21 mph 1020.3mb 55f 52f
2:12pm 18 22 mph 1020.2mb 55f 52f
2:06pm 17 21 mph 1020.1mb 55f 52f
2:00pm 17 22 mph 1020.2mb 56f 52f
1:36pm 18 21 mph 1020.2mb 56f 52f
1:30pm 18 22 mph 1020.3mb 56f 52f
1:24pm 20 22 mph 1020.4mb 56f 52f
1:18pm 18 22 mph 1020.5mb 56f 52f
1:12pm 20 23 mph 1020.6mb 56f 52f
1:06pm 18 21 mph 1020.6mb 56f 52f
1:00pm 17 22 mph 1020.7mb 56f 52f
12:36pm 16 18 mph 1020.9mb 56f 51f
12:30pm 16 18 mph 1020.9mb 56f 51f
12:24pm 15 17 mph 1020.9mb 56f 51f
12:18pm 14 16 mph 1020.9mb 56f 51f
12:12pm 13 14 mph 1020.9mb 56f 51f
12:06pm 10 13 mph 1020.9mb 56f 51f
12:00pm 8 10 mph 1021mb 56f 51f
11:36am 3 5 mph 1021.1mb 54f 53f
11:30am 5 6 mph 1021.1mb 53f 52f
11:24am 3 5 mph 1021.1mb 53f 51f
11:18am 2 2 mph 1021.1mb 53f 51f
11:12am 1 2 mph 1021.1mb 53f 50f
11:06am 2 3 mph 1021.2mb 53f 50f
11:00am 2 2 mph 1021.2mb 53f 50f
10:36am 2 3 mph 1021.2mb 53f 49f
10:30am 2 3 mph 1021.3mb 53f 49f
10:24am 2 5 mph 1021.3mb 53f 49f
10:18am 2 3 mph 1021.4mb 53f 49f
10:12am 2 3 mph 1021.5mb 52f 49f
10:06am 3 5 mph 1021.6mb 52f 49f
10:00am 3 5 mph 1021.5mb 52f 49f
9:36am 3 5 mph 1021.6mb 52f 49f
9:30am 3 5 mph 1021.6mb 52f 49f
9:24am 3 3 mph 1021.7mb 51f 49f
9:18am 3 3 mph 1021.7mb 51f 49f
9:12am 3 3 mph 1021.8mb 51f 49f
9:06am 2 3 mph 1021.8mb 51f 49f
9:00am 2 3 mph 1021.7mb 51f 49f
8:36am 3 3 mph 1021.8mb 51f 49f
8:30am 5 6 mph 1021.9mb 51f 48f
8:24am 5 7 mph 1021.8mb 51f 48f
8:18am 6 6 mph 1021.8mb 51f 48f
8:12am 3 6 mph 1021.8mb 51f 48f
8:06am 2 2 mph 1021.9mb 51f 48f
8:00am 1 2 mph 1022.1mb 51f 48f
7:36am 3 5 mph 1022mb 51f 47f
7:30am 3 5 mph 1022mb 51f 47f
7:24am 3 5 mph 1022mb 51f 47f
7:18am 5 6 mph 1022mb 51f 47f
7:12am 3 3 mph 1022.1mb 51f 47f
7:06am 3 5 mph 1022.1mb 51f 47f
7:00am 5 6 mph 1022mb 51f 47f
6:36am 5 6 mph 1021.9mb 50f 47f
6:30am 3 5 mph 1021.9mb 50f 47f
6:24am 2 5 mph 1021.9mb 50f 47f
6:18am 3 3 mph 1021.9mb 50f 47f
6:12am 3 5 mph 1021.8mb 50f 47f
6:06am 5 6 mph 1021.8mb 50f 47f
6:00am 5 6 mph 1021.9mb 50f 47f
5:36am 3 5 mph 1021.9mb 50f 49f
5:30am 3 5 mph 1022.1mb 50f 49f
5:24am 2 3 mph 1022.1mb 50f 49f
5:18am 2 6 mph 1022.1mb 50f 49f
5:12am 3 6 mph 1022.2mb 50f 49f
5:06am 2 3 mph 1022.2mb 50f 48f
5:00am 5 6 mph 1022.2mb 50f 48f
4:36am 3 5 mph 1022.3mb 50f 48f
4:30am 3 5 mph 1022.2mb 50f 48f
4:24am 3 5 mph 1022.1mb 51f 48f
4:18am 5 6 mph 1022.1mb 51f 48f
4:12am 5 6 mph 1022.1mb 51f 48f
4:06am 5 7 mph 1022mb 51f 48f
4:00am 6 6 mph 1022mb 51f 48f
3:36am 5 7 mph 1021.9mb 51f 48f
3:30am 5 6 mph 1021.9mb 51f 49f
3:24am 5 6 mph 1021.9mb 51f 49f
3:18am 3 5 mph 1022mb 52f 49f
3:12am 3 5 mph 1021.9mb 52f 49f
3:06am 2 3 mph 1021.9mb 52f 49f
3:00am  -  2 mph 1021.9mb 52f 50f
2:36am  -  0 mph 1021.9mb 52f 50f
2:30am  -  2 mph 1022.1mb 52f 50f
2:24am  -  2 mph 1022.1mb 52f 50f
2:18am 2 2 mph 1022.2mb 53f 50f
2:12am 1 1 mph 1022.3mb 53f 50f
2:06am 1 3 mph 1022.3mb 53f 50f
2:00am 3 6 mph 1022.3mb 53f 50f
1:36am 5 7 mph 1022.6mb 53f 50f
1:30am 6 8 mph 1022.7mb 53f 50f
1:24am 5 8 mph 1022.8mb 53f 50f
1:18am 6 9 mph 1022.9mb 53f 50f
1:12am 6 7 mph 1023.1mb 53f 51f
1:06am 7 9 mph 1023.1mb 53f 51f
1:00am 9 11 mph 1023.2mb 54f 51f
12:36am 13 15 mph 1023.4mb 54f 51f
12:30am 9 14 mph 1023.5mb 54f 51f
12:24am 10 11 mph 1023.5mb 54f 51f
12:18am 10 11 mph 1023.6mb 54f 51f
12:12am 9 11 mph 1023.6mb 54f 51f
12:06am 9 10 mph 1023.7mb 54f 51f
12:00am 8 10 mph 1023.8mb 54f 51f
Sat 04/21 11:36pm 13 15 mph 1024mb 54f 51f
11:30pm 14 15 mph 1024.1mb 54f 51f
11:24pm 13 15 mph 1024.1mb 54f 51f
11:18pm 13 15 mph 1024.2mb 54f 51f
11:12pm 13 15 mph 1024.2mb 54f 51f
11:06pm 11 13 mph 1024.2mb 53f 51f
11:00pm 11 13 mph 1024.3mb 53f 51f
10:36pm 11 13 mph 1024.5mb 53f 51f
10:30pm 11 14 mph 1024.5mb 53f 51f
10:24pm 13 14 mph 1024.5mb 53f 51f
10:18pm 13 15 mph 1024.6mb 53f 51f
10:12pm 14 15 mph 1024.7mb 53f 51f
10:06pm 15 16 mph 1024.8mb 53f 51f
10:00pm 14 17 mph 1024.7mb 53f 51f
9:36pm 16 18 mph 1024.7mb 53f 51f
9:30pm 16 20 mph 1024.7mb 53f 51f
9:24pm 16 20 mph 1024.7mb 53f 51f
9:18pm 18 22 mph 1024.6mb 53f 51f
9:12pm 17 20 mph 1024.6mb 52f 51f
9:06pm 18 21 mph 1024.5mb 52f 51f
9:00pm 18 21 mph 1024.5mb 52f 51f
8:36pm 17 20 mph 1024.3mb 52f 51f
8:30pm 18 23 mph 1024.3mb 52f 51f
8:24pm 17 22 mph 1024.3mb 52f 51f
8:18pm 21 23 mph 1024.4mb 52f 51f
8:12pm 20 24 mph 1024.3mb 52f 51f
8:06pm 21 23 mph 1024.2mb 52f 51f
8:00pm 22 24 mph 1024.2mb 51f 51f
7:36pm 23 26 mph 1024.1mb 51f 51f
7:30pm 22 25 mph 1024.2mb 51f 51f
7:24pm 22 24 mph 1024.2mb 51f 51f
7:18pm 22 25 mph 1024.1mb 51f 51f
7:12pm 22 25 mph 1024.2mb 51f 51f
7:06pm 23 25 mph 1024.3mb 51f 51f
7:00pm 22 26 mph 1024.3mb 51f 51f
6:36pm 25 30 mph 1024.3mb 51f 51f
6:30pm 28 31 mph 1024.4mb 51f 51f
6:24pm 26 28 mph 1024.4mb 51f 51f
6:18pm 25 28 mph 1024.4mb 51f 51f
6:12pm 25 29 mph 1024.4mb 51f 51f
6:06pm 25 28 mph 1024.4mb 51f 51f
6:00pm 25 31 mph 1024.4mb 51f 51f
5:36pm 29 33 mph 1024.4mb 51f 51f
5:30pm 28 32 mph 1024.4mb 51f 51f
5:24pm 26 30 mph 1024.4mb 51f 51f
5:18pm 28 31 mph 1024.5mb 51f 51f
5:12pm 25 31 mph 1024.6mb 51f 51f
5:06pm 29 32 mph 1024.6mb 52f 51f
5:00pm 28 30 mph 1024.7mb 52f 51f
4:36pm 26 30 mph 1024.9mb 52f 51f
4:30pm 24 28 mph 1024.9mb 52f 51f
4:24pm 24 28 mph 1025mb 52f 51f
4:18pm 22 26 mph 1025.1mb 52f 51f
4:12pm 24 29 mph 1025.1mb 52f 51f
4:06pm 23 26 mph 1025.2mb 53f 51f
4:00pm 24 28 mph 1025.3mb 53f 51f
3:36pm 22 26 mph 1025.5mb 53f 51f
3:30pm 23 26 mph 1025.5mb 53f 51f
3:24pm 24 28 mph 1025.5mb 53f 51f
3:18pm 24 28 mph 1025.6mb 53f 51f
3:12pm 24 26 mph 1025.6mb 54f 51f
3:06pm 22 26 mph 1025.7mb 54f 51f
3:00pm 23 28 mph 1025.7mb 54f 51f
2:36pm 22 25 mph 1025.9mb 55f 51f
2:30pm 24 26 mph 1026mb 55f 51f
2:24pm 21 26 mph 1026mb 55f 51f
2:18pm 24 26 mph 1025.9mb 55f 51f
2:12pm 23 25 mph 1025.9mb 55f 51f
2:06pm 22 24 mph 1025.9mb 55f 51f
2:00pm 22 26 mph 1025.9mb 55f 51f
1:36pm 21 24 mph 1025.8mb 55f 51f
1:30pm 22 25 mph 1025.9mb 55f 51f
1:24pm 23 24 mph 1025.9mb 55f 51f
1:18pm 21 25 mph 1025.9mb 55f 51f
1:12pm 22 26 mph 1025.9mb 55f 51f
1:06pm 23 25 mph 1025.8mb 55f 51f
1:00pm 24 26 mph 1025.9mb 56f 51f
12:36pm 23 25 mph 1025.9mb 56f 51f
12:30pm 25 29 mph 1026mb 56f 51f
12:24pm 23 26 mph 1026mb 56f 51f
12:18pm 24 26 mph 1025.9mb 56f 51f
12:12pm 23 28 mph 1026mb 56f 51f
12:06pm 21 26 mph 1026mb 56f 51f
12:00pm 22 25 mph 1026.2mb 56f 51f
11:36am 16 20 mph 1026.1mb 55f 51f
11:30am 16 18 mph 1026.1mb 55f 51f
11:24am 16 18 mph 1026.1mb 55f 51f
11:18am 16 20 mph 1026.2mb 55f 50f
11:12am 17 20 mph 1026.2mb 55f 50f
11:06am 17 20 mph 1026.3mb 55f 50f
11:00am 17 20 mph 1026.3mb 55f 50f
10:36am 17 21 mph 1026.4mb 54f 50f
10:30am 20 22 mph 1026.4mb 54f 50f
10:24am 17 23 mph 1026.4mb 54f 50f
10:18am 18 22 mph 1026.4mb 54f 50f
10:12am 18 20 mph 1026.3mb 54f 50f
10:06am 18 20 mph 1026.4mb 54f 50f
10:00am 16 21 mph 1026.4mb 54f 50f
9:36am 14 17 mph 1026.6mb 53f 49f
9:30am 13 15 mph 1026.7mb 53f 49f
9:24am 14 16 mph 1026.7mb 53f 49f
9:18am 13 15 mph 1026.7mb 53f 49f
9:12am 13 16 mph 1026.8mb 53f 49f
9:06am 10 11 mph 1026.8mb 53f 49f
9:00am 9 13 mph 1026.8mb 53f 48f
8:36am 9 13 mph 1026.7mb 52f 49f
8:30am 10 13 mph 1026.6mb 52f 49f
8:24am 11 14 mph 1026.7mb 52f 49f
8:18am 10 11 mph 1026.7mb 52f 49f
8:12am 8 10 mph 1026.7mb 52f 49f
8:06am 8 9 mph 1026.7mb 52f 49f
8:00am 8 10 mph 1026.7mb 52f 49f
7:36am 8 10 mph 1026.6mb 52f 48f
7:30am 8 9 mph 1026.6mb 52f 48f
7:24am 9 10 mph 1026.6mb 51f 48f
7:18am 8 10 mph 1026.6mb 51f 47f
7:12am 6 8 mph 1026.6mb 51f 46f
7:06am 3 5 mph 1026.7mb 51f 46f
7:00am 3 3 mph 1026.7mb 51f 46f
6:36am 3 5 mph 1026.6mb 51f 44f
6:30am 5 6 mph 1026.5mb 51f 44f
6:24am 6 7 mph 1026.4mb 51f 44f
6:18am 6 7 mph 1026.4mb 51f 44f
6:12am 6 7 mph 1026.4mb 51f 44f
6:06am 6 7 mph 1026.4mb 51f 44f
6:00am 6 7 mph 1026.5mb 51f 44f
5:36am 6 8 mph 1026.6mb 51f 46f
5:30am 5 6 mph 1026.6mb 51f 45f
5:24am 3 5 mph 1026.7mb 51f 46f
5:18am 3 5 mph 1026.7mb 51f 46f
5:12am 3 5 mph 1026.6mb 50f 45f
5:06am 3 5 mph 1026.6mb 50f 46f
5:00am 5 6 mph 1026.6mb 50f 46f
4:36am 7 10 mph 1026.8mb 50f 48f
4:30am 9 11 mph 1026.8mb 50f 48f
4:24am 10 11 mph 1026.8mb 50f 49f
4:18am 10 13 mph 1026.9mb 50f 49f
4:12am 11 13 mph 1027mb 50f 49f
4:06am 11 14 mph 1027mb 50f 49f
4:00am 11 14 mph 1027.1mb 50f 50f
3:36am 15 17 mph 1027.2mb 51f 50f
3:30am 15 17 mph 1027.2mb 51f 50f
3:24am 16 17 mph 1027.2mb 51f 50f
3:18am 15 16 mph 1027.1mb 51f 50f
3:12am 14 16 mph 1027.2mb 51f 50f
3:06am 14 15 mph 1027.2mb 51f 50f
3:00am 14 15 mph 1027.2mb 52f 50f
2:36am 14 17 mph 1027.4mb 52f 51f
2:30am 16 17 mph 1027.5mb 53f 51f
2:24am 15 17 mph 1027.4mb 53f 51f
2:18am 16 17 mph 1027.4mb 53f 51f
2:12am 15 17 mph 1027.4mb 53f 51f
2:06am 15 16 mph 1027.6mb 53f 51f
2:00am 15 18 mph 1027.6mb 53f 51f
1:36am 9 11 mph 1027.6mb 53f 50f
1:30am 9 11 mph 1027.6mb 53f 50f
1:24am 9 10 mph 1027.6mb 54f 50f
1:18am 10 11 mph 1027.6mb 54f 50f
1:12am 10 11 mph 1027.6mb 54f 50f
1:06am 9 11 mph 1027.7mb 54f 50f
1:00am 9 10 mph 1027.8mb 54f 50f
12:36am 10 13 mph 1027.5mb 54f 50f
12:30am 10 13 mph 1027.5mb 54f 50f
12:24am 10 11 mph 1027.5mb 54f 50f
12:18am 9 14 mph 1027.3mb 54f 50f
12:12am 14 15 mph 1027.2mb 54f 51f
12:06am 14 16 mph 1027.3mb 54f 51f
12:00am 15 18 mph 1027.6mb 54f 51f
Fri 04/20 11:36pm 15 16 mph 1027.5mb 55f 51f
11:30pm 15 18 mph 1027.4mb 55f 51f
11:24pm 16 17 mph 1027.3mb 55f 51f
11:18pm 14 16 mph 1027.2mb 55f 51f
11:12pm 14 16 mph 1027.1mb 55f 51f
11:06pm 14 16 mph 1027.2mb 55f 51f
11:00pm 15 16 mph 1027mb 55f 51f
10:36pm 14 17 mph 1026.9mb 55f 51f
10:30pm 15 17 mph 1026.9mb 55f 51f
10:24pm 16 18 mph 1027mb 55f 51f
10:18pm 14 17 mph 1027mb 54f 52f
10:12pm 15 17 mph 1027mb 54f 51f
10:06pm 14 16 mph 1027.1mb 54f 51f
10:00pm 15 16 mph 1027mb 54f 51f
9:36pm 14 16 mph 1027mb 54f 52f
9:30pm 14 17 mph 1027mb 54f 52f
9:24pm 16 18 mph 1027mb 54f 52f
9:18pm 16 17 mph 1026.9mb 54f 52f
9:12pm 16 18 mph 1026.9mb 54f 52f
9:06pm 17 18 mph 1026.9mb 54f 52f
9:00pm 15 17 mph 1026.8mb 53f 52f
8:36pm 14 15 mph 1026.6mb 53f 51f
8:30pm 14 16 mph 1026.6mb 53f 51f
8:24pm 15 17 mph 1026.6mb 53f 51f
8:18pm 15 17 mph 1026.5mb 53f 51f
8:12pm 14 16 mph 1026.5mb 53f 51f
8:06pm 13 16 mph 1026.5mb 53f 51f
8:00pm 13 16 mph 1026.4mb 53f 51f
7:36pm 11 13 mph 1026mb 53f 51f
7:30pm 10 13 mph 1025.9mb 53f 51f
7:24pm 11 13 mph 1025.8mb 53f 51f
7:18pm 11 13 mph 1025.8mb 53f 51f
7:12pm 10 13 mph 1025.8mb 53f 51f
7:06pm 13 14 mph 1025.8mb 53f 51f
7:00pm 13 14 mph 1025.8mb 53f 51f
6:36pm 11 13 mph 1025.5mb 53f 51f
6:30pm 13 14 mph 1025.4mb 53f 51f
6:24pm 14 15 mph 1025.5mb 53f 51f
6:18pm 13 15 mph 1025.5mb 53f 51f
6:12pm 13 15 mph 1025.5mb 53f 51f
6:06pm 15 16 mph 1025.6mb 52f 51f
6:00pm 15 17 mph 1025.6mb 52f 51f
5:36pm 15 16 mph 1025.6mb 52f 51f
5:30pm 14 16 mph 1025.6mb 52f 51f
5:24pm 15 17 mph 1025.6mb 52f 51f
5:18pm 14 15 mph 1025.7mb 52f 51f
5:12pm 15 16 mph 1025.7mb 52f 51f
5:06pm 15 16 mph 1025.6mb 52f 51f
5:00pm 15 16 mph 1025.7mb 52f 51f
4:36pm 15 17 mph 1025.9mb 52f 51f
4:30pm 15 17 mph 1025.9mb 52f 51f
4:24pm 14 16 mph 1025.9mb 52f 51f
4:18pm 15 16 mph 1025.9mb 52f 51f
4:12pm 15 16 mph 1025.9mb 52f 51f
4:06pm 15 17 mph 1026mb 52f 51f
4:00pm 15 17 mph 1026.1mb 52f 51f
3:36pm 15 18 mph 1026.1mb 52f 51f
3:30pm 15 18 mph 1026.1mb 52f 51f
3:24pm 17 17 mph 1026mb 52f 51f
3:18pm 16 20 mph 1026.1mb 52f 51f
3:12pm 16 18 mph 1026.1mb 53f 51f
3:06pm 14 17 mph 1026.2mb 53f 51f
3:00pm 16 17 mph 1026.1mb 53f 51f
2:36pm 16 17 mph 1026mb 53f 51f
2:30pm 16 18 mph 1025.9mb 53f 51f
2:24pm 16 18 mph 1025.9mb 53f 51f
2:18pm 16 17 mph 1025.9mb 54f 51f
2:12pm 15 18 mph 1025.9mb 54f 51f
2:06pm 17 18 mph 1025.8mb 54f 51f
2:00pm 18 21 mph 1025.9mb 54f 51f
1:36pm 20 22 mph 1025.6mb 54f 51f
1:30pm 16 18 mph 1025.7mb 54f 51f
1:24pm 15 17 mph 1025.7mb 54f 51f
1:18pm 15 17 mph 1025.7mb 54f 51f
1:12pm 16 17 mph 1025.7mb 54f 51f
1:06pm 16 17 mph 1025.7mb 54f 52f
1:00pm 15 17 mph 1025.7mb 55f 51f
12:36pm 13 14 mph 1025.5mb 55f 51f
12:30pm 13 13 mph 1025.4mb 55f 51f
12:24pm 10 14 mph 1025.4mb 55f 51f
12:18pm 11 13 mph 1025.4mb 55f 51f
12:12pm 10 10 mph 1025.3mb 55f 52f
12:06pm 8 9 mph 1025.3mb 55f 52f
12:00pm 8 9 mph 1025.2mb 55f 52f
11:36am 5 6 mph 1025.2mb 56f 52f
11:30am 6 8 mph 1025.2mb 56f 51f
11:24am 7 7 mph 1025.2mb 56f 51f
11:18am 7 9 mph 1025.3mb 56f 51f
11:12am 8 9 mph 1025.2mb 56f 50f
11:06am 8 8 mph 1025.2mb 56f 51f
11:00am 7 8 mph 1025.2mb 56f 51f
10:36am 7 7 mph 1025mb 56f 50f
10:30am 5 7 mph 1024.9mb 56f 51f
10:24am 6 8 mph 1024.9mb 56f 50f
10:18am 7 8 mph 1024.9mb 56f 50f
10:12am 8 8 mph 1024.9mb 55f 50f
10:06am 8 9 mph 1024.9mb 54f 50f
10:00am 9 10 mph 1024.9mb 54f 50f
9:36am 6 7 mph 1024.7mb 54f 52f
9:30am 5 7 mph 1024.7mb 53f 51f
9:24am 6 7 mph 1024.6mb 53f 50f
9:18am 6 8 mph 1024.6mb 53f 50f
9:12am 6 7 mph 1024.7mb 53f 50f
9:06am 7 8 mph 1024.7mb 53f 50f
9:00am 6 8 mph 1024.7mb 53f 49f
8:36am 7 9 mph 1024.5mb 53f 48f
8:30am 8 8 mph 1024.5mb 53f 48f
8:24am 8 9 mph 1024.5mb 53f 48f
8:18am 8 8 mph 1024.3mb 53f 48f
8:12am 7 8 mph 1024.4mb 53f 48f
8:06am 7 9 mph 1024.3mb 53f 48f
8:00am 8 9 mph 1024.3mb 53f 47f
7:36am 7 9 mph 1024mb 52f 48f
7:30am 6 7 mph 1023.9mb 52f 48f
7:24am 5 6 mph 1024mb 52f 48f
7:18am 5 6 mph 1024mb 52f 47f
7:12am 6 7 mph 1024mb 52f 47f
7:06am 6 7 mph 1024mb 52f 47f
7:00am 6 8 mph 1023.9mb 52f 46f
6:36am 6 8 mph 1023.7mb 52f 46f
6:30am 6 7 mph 1023.8mb 52f 46f
6:24am 5 6 mph 1023.7mb 52f 46f
6:18am 5 6 mph 1023.7mb 52f 45f
6:12am 5 6 mph 1023.7mb 52f 45f
6:06am 6 7 mph 1023.7mb 52f 45f
6:00am 6 7 mph 1023.6mb 52f 46f
5:36am 6 7 mph 1023.7mb 52f 47f
5:30am 5 6 mph 1023.8mb 52f 47f
5:24am 3 5 mph 1023.8mb 52f 47f
5:18am 2 3 mph 1023.8mb 52f 47f
5:12am 2 3 mph 1023.8mb 52f 47f
5:06am 2 5 mph 1023.8mb 51f 47f
5:00am 3 6 mph 1023.7mb 51f 46f
4:36am 3 5 mph 1023.8mb 51f 46f
4:30am 3 6 mph 1023.8mb 51f 47f
4:24am 5 7 mph 1023.8mb 51f 47f
4:18am 5 6 mph 1023.8mb 51f 47f
4:12am 5 5 mph 1023.8mb 51f 47f
4:06am 3 5 mph 1023.8mb 51f 47f
4:00am 3 5 mph 1023.9mb 51f 47f
3:36am 2 3 mph 1023.9mb 50f 47f
3:30am 3 6 mph 1023.9mb 51f 47f
3:24am 3 6 mph 1023.8mb 51f 47f
3:18am 5 6 mph 1023.8mb 51f 47f
3:12am 5 7 mph 1023.8mb 51f 47f
3:06am 5 6 mph 1023.8mb 51f 47f
3:00am 3 5 mph 1023.9mb 51f 48f